Time;durP1;ratioP1;P1;durP2;ratioP2;P2;SDS_P1;SDS_P2;PMS_P1;PMS_P2;Temp;Humidity;BMP_temperature;BMP_pressure;BME280_temperature;BME280_humidity;BME280_pressure;Samples;Min_cycle;Max_cycle;Signal;HPM_P1;HPM_P2
2021/05/26 00:00:23;;;;;;;4.82;2.78;;;8.40;99.90;;;;;;6200549;23;20324;-88
2021/05/26 00:02:52;;;;;;;3.85;2.25;;;8.40;99.90;;;;;;6201354;23;20016;-89
2021/05/26 00:05:18;;;;;;;2.67;2.08;;;8.40;99.90;;;;;;6214949;23;20012;-88
2021/05/26 00:07:45;;;;;;;2.33;2.13;;;8.30;99.90;;;;;;6227590;23;20020;-88
2021/05/26 00:10:11;;;;;;;3.58;2.13;;;8.30;99.90;;;;;;6200695;23;20036;-88
2021/05/26 00:12:42;;;;;;;6.18;2.42;;;8.30;99.90;;;;;;6227137;23;20051;-89
2021/05/26 00:15:09;;;;;;;3.75;2.58;;;8.20;99.90;;;;;;6201763;23;20005;-88
2021/05/26 00:17:36;;;;;;;2.80;2.50;;;8.20;99.90;;;;;;6200606;23;20008;-89
2021/05/26 00:20:06;;;;;;;2.97;2.47;;;8.20;99.90;;;;;;6227009;23;19997;-88
2021/05/26 00:22:37;;;;;;;5.78;2.70;;;8.20;99.90;;;;;;6175759;23;20050;-89
2021/05/26 00:25:06;;;;;;;6.28;2.97;;;8.20;99.90;;;;;;6201665;23;20023;-90
2021/05/26 00:27:31;;;;;;;5.32;3.25;;;8.10;99.90;;;;;;6229439;23;20062;-89
2021/05/26 00:29:57;;;;;;;6.40;4.45;;;8.10;99.90;;;;;;6232181;23;20001;-88
2021/05/26 00:32:23;;;;;;;5.70;3.78;;;8.10;99.90;;;;;;6179604;23;20075;-88
2021/05/26 00:34:49;;;;;;;6.57;3.97;;;8.10;99.90;;;;;;6229562;23;20043;-88
2021/05/26 00:37:15;;;;;;;7.03;4.35;;;8.10;99.90;;;;;;6201275;23;19997;-88
2021/05/26 00:39:40;;;;;;;9.32;4.35;;;8.10;99.90;;;;;;6201670;23;20019;-90
2021/05/26 00:42:06;;;;;;;7.95;5.43;;;8.10;99.90;;;;;;6200435;23;20012;-89
2021/05/26 00:44:38;;;;;;;6.35;4.47;;;8.10;99.90;;;;;;6227142;23;20035;-88
2021/05/26 00:47:04;;;;;;;8.18;4.55;;;8.10;99.90;;;;;;6177387;23;20023;-89
2021/05/26 00:49:30;;;;;;;7.57;4.82;;;8.10;99.90;;;;;;6196878;23;20003;-89
2021/05/26 00:51:56;;;;;;;9.40;5.07;;;8.10;99.90;;;;;;6196108;23;20008;-89
2021/05/26 00:54:21;;;;;;;8.20;5.05;;;8.10;99.90;;;;;;6196156;23;20001;-89
2021/05/26 00:56:49;;;;;;;9.93;4.88;;;8.10;99.90;;;;;;6195915;23;20011;-88
2021/05/26 00:59:15;;;;;;;14.77;6.00;;;8.10;99.90;;;;;;6197884;23;20004;-89
2021/05/26 01:01:43;;;;;;;10.57;5.90;;;8.10;99.90;;;;;;6196212;23;20070;-90
2021/05/26 01:04:08;;;;;;;11.07;5.85;;;8.10;99.90;;;;;;6200564;23;20488;-88
2021/05/26 01:06:37;;;;;;;11.55;5.47;;;8.10;99.90;;;;;;6200987;23;20040;-89
2021/05/26 01:09:03;;;;;;;11.93;5.65;;;8.10;99.90;;;;;;6229327;23;20060;-89
2021/05/26 01:11:30;;;;;;;10.40;5.80;;;8.10;99.90;;;;;;6208836;23;20001;-90
2021/05/26 01:13:59;;;;;;;12.90;5.35;;;8.10;99.90;;;;;;6236713;23;20056;-90
2021/05/26 01:16:25;;;;;;;12.57;6.25;;;8.10;99.90;;;;;;6232617;23;19997;-89
2021/05/26 01:18:50;;;;;;;17.80;6.82;;;8.10;99.90;;;;;;6200841;23;20022;-88
2021/05/26 01:21:16;;;;;;;16.67;7.00;;;8.10;99.90;;;;;;6202457;23;19996;-89
2021/05/26 01:23:42;;;;;;;12.23;6.28;;;8.10;99.90;;;;;;6200371;23;20008;-89
2021/05/26 01:26:10;;;;;;;18.42;6.88;;;8.10;99.90;;;;;;6199276;23;20040;-89
2021/05/26 01:28:43;;;;;;;13.95;6.70;;;8.10;99.90;;;;;;6223349;23;20064;-89
2021/05/26 01:31:08;;;;;;;14.95;7.28;;;8.10;99.90;;;;;;6194263;23;20016;-89
2021/05/26 01:33:34;;;;;;;16.30;7.03;;;8.10;99.90;;;;;;6190434;23;20012;-89
2021/05/26 01:36:00;;;;;;;17.38;6.82;;;8.10;99.90;;;;;;6190172;23;20030;-89
2021/05/26 01:38:26;;;;;;;13.50;7.10;;;8.00;99.90;;;;;;6190138;23;19996;-90
2021/05/26 01:40:59;;;;;;;19.38;8.45;;;8.00;99.90;;;;;;6217315;23;20039;-88
2021/05/26 01:43:26;;;;;;;14.50;7.07;;;8.00;99.90;;;;;;6165964;23;20036;-88
2021/05/26 01:45:55;;;;;;;15.30;7.30;;;8.00;99.90;;;;;;6190611;23;20016;-89
2021/05/26 01:48:22;;;;;;;10.25;7.15;;;8.00;99.90;;;;;;6191049;23;20005;-90
2021/05/26 01:50:50;;;;;;;12.90;6.80;;;8.00;99.90;;;;;;6166066;23;20008;-89
2021/05/26 01:53:16;;;;;;;12.25;6.70;;;8.00;99.90;;;;;;6190569;23;20083;-90
2021/05/26 01:55:44;;;;;;;11.15;6.00;;;8.00;99.90;;;;;;6191026;23;20079;-90
2021/05/26 01:58:13;;;;;;;11.60;6.40;;;8.00;99.90;;;;;;6190621;23;20027;-90
2021/05/26 02:00:44;;;;;;;10.65;5.78;;;8.00;99.90;;;;;;6190505;23;20305;-90
2021/05/26 02:03:10;;;;;;;14.13;7.13;;;8.00;99.90;;;;;;6190598;23;20005;-89
2021/05/26 02:05:36;;;;;;;18.33;6.50;;;7.90;99.90;;;;;;6216731;23;20019;-89
2021/05/26 02:08:02;;;;;;;13.05;5.75;;;7.90;99.90;;;;;;6190394;23;20083;-89
2021/05/26 02:13:12;;;;;;;8.93;5.00;;;7.90;99.90;;;;;;6216582;23;20387;-89
2021/05/26 02:15:38;;;;;;;13.35;6.15;;;7.90;99.90;;;;;;6216612;23;20008;-89
2021/05/26 02:18:04;;;;;;;12.82;5.45;;;7.80;99.90;;;;;;6217130;23;20000;-91
2021/05/26 02:20:30;;;;;;;14.02;5.90;;;7.80;99.90;;;;;;6189644;23;20083;-89
2021/05/26 02:22:59;;;;;;;13.68;5.30;;;7.80;99.90;;;;;;6190296;23;20008;-89
2021/05/26 02:25:24;;;;;;;13.20;5.10;;;7.80;99.90;;;;;;6190073;23;20012;-89
2021/05/26 02:27:50;;;;;;;12.02;5.47;;;7.80;99.90;;;;;;6216607;23;20084;-89
2021/05/26 02:30:16;;;;;;;17.70;5.28;;;7.80;99.90;;;;;;6216964;23;20047;-89
2021/05/26 02:32:42;;;;;;;13.80;5.70;;;7.70;99.90;;;;;;6216170;23;20016;-89
2021/05/26 02:35:08;;;;;;;9.80;5.47;;;7.70;99.90;;;;;;6190296;23;20004;-88
2021/05/26 02:37:34;;;;;;;11.73;5.40;;;7.60;99.90;;;;;;6215694;23;20005;-89
2021/05/26 02:39:59;;;;;;;8.80;5.10;;;7.60;99.90;;;;;;6216658;23;20376;-88
2021/05/26 02:42:25;;;;;;;12.23;4.90;;;7.60;99.90;;;;;;6189898;23;20020;-89
2021/05/26 02:44:52;;;;;;;13.60;5.53;;;7.60;99.90;;;;;;6190153;23;20017;-89
2021/05/26 02:47:18;;;;;;;11.65;4.80;;;7.50;99.90;;;;;;6190204;23;20035;-89
2021/05/26 02:49:43;;;;;;;8.27;4.93;;;7.40;99.90;;;;;;6189868;23;20013;-89
2021/05/26 02:52:09;;;;;;;8.55;4.78;;;7.40;99.90;;;;;;6190344;23;20004;-89
2021/05/26 02:54:34;;;;;;;7.38;4.68;;;7.40;99.90;;;;;;6190412;23;20058;-89
2021/05/26 02:57:00;;;;;;;11.00;4.90;;;7.40;99.90;;;;;;6189674;23;20344;-90
2021/05/26 02:59:26;;;;;;;11.40;4.80;;;7.40;99.90;;;;;;6190262;23;20106;-90
2021/05/26 03:01:52;;;;;;;10.38;4.60;;;7.30;99.90;;;;;;6190071;23;20103;-89
2021/05/26 03:04:21;;;;;;;6.70;4.43;;;7.30;99.90;;;;;;6190009;23;20410;-89
2021/05/26 03:06:47;;;;;;;10.80;5.03;;;7.30;99.90;;;;;;6190420;23;20462;-89
2021/05/26 03:09:13;;;;;;;8.63;4.10;;;7.20;99.90;;;;;;6190137;23;20004;-88
2021/05/26 03:11:40;;;;;;;33.60;6.50;;;7.10;99.90;;;;;;6189863;23;19996;-89
2021/05/26 03:14:06;;;;;;;10.95;5.10;;;7.10;99.90;;;;;;6190391;23;20032;-90
2021/05/26 03:16:32;;;;;;;10.98;4.60;;;7.10;99.90;;;;;;6215952;23;20026;-89
2021/05/26 03:18:58;;;;;;;14.55;4.50;;;7.10;99.90;;;;;;6217067;23;20080;-89
2021/05/26 03:21:27;;;;;;;7.22;4.43;;;7.00;99.90;;;;;;6214829;23;20434;-89
2021/05/26 03:23:53;;;;;;;10.48;4.38;;;7.00;99.90;;;;;;6190409;23;20009;-88
2021/05/26 03:26:20;;;;;;;8.05;4.22;;;7.00;99.90;;;;;;6190878;23;20017;-88
2021/05/26 03:28:47;;;;;;;14.38;4.78;;;7.00;99.90;;;;;;6189948;23;20005;-88
2021/05/26 03:31:13;;;;;;;9.13;4.03;;;6.90;99.90;;;;;;6191228;23;20313;-89
2021/05/26 03:33:39;;;;;;;12.20;4.82;;;6.90;99.90;;;;;;6191952;23;20059;-89
2021/05/26 03:36:05;;;;;;;11.70;4.97;;;6.90;99.90;;;;;;6191330;23;20031;-88
2021/05/26 03:38:31;;;;;;;10.32;4.88;;;6.90;99.90;;;;;;6166723;23;20092;-89
2021/05/26 03:40:57;;;;;;;10.50;5.00;;;6.90;99.90;;;;;;6217827;23;20012;-89
2021/05/26 03:43:22;;;;;;;12.50;4.47;;;6.90;99.90;;;;;;6190910;23;20016;-89
2021/05/26 03:45:48;;;;;;;6.95;4.05;;;6.80;99.90;;;;;;6191266;23;20013;-91
2021/05/26 03:48:14;;;;;;;12.02;4.20;;;6.80;99.90;;;;;;6191348;23;20032;-89
2021/05/26 03:50:41;;;;;;;10.52;3.88;;;6.80;99.90;;;;;;6191042;23;20011;-89
2021/05/26 03:53:08;;;;;;;6.07;4.00;;;6.80;99.90;;;;;;6191044;23;20005;-89
2021/05/26 03:55:35;;;;;;;8.15;3.40;;;6.70;99.90;;;;;;6217826;23;20008;-88
2021/05/26 03:58:04;;;;;;;8.52;3.85;;;6.70;99.90;;;;;;6218045;23;20084;-89
2021/05/26 04:00:29;;;;;;;6.30;3.75;;;6.60;99.90;;;;;;6190587;23;20005;-89
2021/05/26 04:02:55;;;;;;;5.95;3.25;;;6.60;99.90;;;;;;6191012;23;20058;-89
2021/05/26 04:05:23;;;;;;;8.45;3.20;;;6.60;99.90;;;;;;6190672;23;20028;-91
2021/05/26 04:07:49;;;;;;;8.25;3.75;;;6.60;99.90;;;;;;6190755;23;20007;-89
2021/05/26 04:10:14;;;;;;;10.27;3.40;;;6.50;99.90;;;;;;6217225;23;20324;-89
2021/05/26 04:12:40;;;;;;;7.88;4.03;;;6.50;99.90;;;;;;6217823;23;20013;-89
2021/05/26 04:15:07;;;;;;;4.72;3.28;;;6.50;99.90;;;;;;6190523;23;20362;-89
2021/05/26 04:17:33;;;;;;;5.65;3.33;;;6.40;99.90;;;;;;6190771;23;20015;-89
2021/05/26 04:20:04;;;;;;;9.77;3.58;;;6.40;99.90;;;;;;6190636;23;20005;-89
2021/05/26 04:22:32;;;;;;;6.22;3.22;;;6.30;99.90;;;;;;6190834;23;20001;-88
2021/05/26 04:24:57;;;;;;;5.90;3.33;;;6.30;99.90;;;;;;6190109;23;20016;-89
2021/05/26 04:27:23;;;;;;;8.80;3.65;;;6.30;99.90;;;;;;6190208;23;20466;-89
2021/05/26 04:29:49;;;;;;;9.13;3.70;;;6.20;99.90;;;;;;6190107;23;20630;-89
2021/05/26 04:32:15;;;;;;;7.90;3.65;;;6.20;99.90;;;;;;6190546;23;20005;-89
2021/05/26 04:34:40;;;;;;;5.80;3.00;;;6.10;99.90;;;;;;6190313;23;20072;-88
2021/05/26 04:37:06;;;;;;;9.38;3.85;;;6.10;99.90;;;;;;6189755;23;20332;-90
2021/05/26 04:39:32;;;;;;;5.95;3.42;;;6.10;99.90;;;;;;6215277;23;20087;-90
2021/05/26 04:41:57;;;;;;;9.32;3.08;;;6.10;99.90;;;;;;6189114;23;20008;-88
2021/05/26 04:44:23;;;;;;;7.78;3.85;;;6.10;99.90;;;;;;6189723;23;20005;-89
2021/05/26 04:46:48;;;;;;;8.20;4.00;;;6.10;99.90;;;;;;6190794;23;20451;-89
2021/05/26 04:49:14;;;;;;;4.97;3.40;;;6.10;99.90;;;;;;6190761;23;20004;-89
2021/05/26 04:51:40;;;;;;;6.93;3.60;;;6.20;99.90;;;;;;6189604;23;20011;-89
2021/05/26 04:54:07;;;;;;;8.63;4.00;;;6.10;99.90;;;;;;6190610;23;20432;-88
2021/05/26 04:56:32;;;;;;;7.07;3.65;;;6.20;99.90;;;;;;6190434;23;20019;-88
2021/05/26 04:58:58;;;;;;;8.23;3.95;;;6.20;99.90;;;;;;6190739;23;20035;-89
2021/05/26 05:01:24;;;;;;;5.20;2.90;;;6.20;99.90;;;;;;6190849;23;20324;-89
2021/05/26 05:03:50;;;;;;;5.55;3.65;;;6.20;99.90;;;;;;6190962;23;20008;-88
2021/05/26 05:06:21;;;;;;;5.07;3.05;;;6.20;99.90;;;;;;6165653;23;20031;-89
2021/05/26 05:08:47;;;;;;;4.60;2.97;;;6.20;99.90;;;;;;6191182;23;20005;-88
2021/05/26 05:11:13;;;;;;;8.38;3.75;;;6.10;99.90;;;;;;6190372;23;20138;-88
2021/05/26 05:13:38;;;;;;;6.18;3.10;;;6.10;99.90;;;;;;6189683;23;20059;-89
2021/05/26 05:16:04;;;;;;;9.45;3.35;;;6.20;99.90;;;;;;6189758;23;20008;-90
2021/05/26 05:18:30;;;;;;;5.88;3.40;;;6.10;99.90;;;;;;6189079;23;20498;-89
2021/05/26 05:20:58;;;;;;;5.55;3.17;;;6.20;99.90;;;;;;6189018;23;20007;-89
2021/05/26 05:23:23;;;;;;;12.90;3.55;;;6.20;99.90;;;;;;6189007;23;20000;-90
2021/05/26 05:25:52;;;;;;;4.75;3.28;;;6.20;99.90;;;;;;6189301;23;20016;-88
2021/05/26 05:28:18;;;;;;;5.85;3.40;;;6.20;99.90;;;;;;6189387;23;20109;-89
2021/05/26 05:30:43;;;;;;;5.90;3.05;;;6.20;99.90;;;;;;6189356;23;20457;-88
2021/05/26 05:33:09;;;;;;;5.10;3.78;;;6.10;99.90;;;;;;6189095;23;20044;-90
2021/05/26 05:35:37;;;;;;;8.60;3.60;;;6.10;99.90;;;;;;6189406;23;20012;-88
2021/05/26 05:38:03;;;;;;;8.32;3.70;;;6.10;99.90;;;;;;6216383;23;20000;-89
2021/05/26 05:40:28;;;;;;;7.05;3.42;;;6.10;99.90;;;;;;6191150;23;20500;-90
2021/05/26 05:42:56;;;;;;;7.88;3.33;;;6.10;99.90;;;;;;6189774;23;20090;-89
2021/05/26 05:45:22;;;;;;;4.25;2.72;;;6.10;99.90;;;;;;6189576;23;20018;-88
2021/05/26 05:47:50;;;;;;;8.07;2.67;;;6.20;99.90;;;;;;6189479;23;20013;-88
2021/05/26 05:50:17;;;;;;;7.63;3.10;;;6.20;99.90;;;;;;6189552;23;20054;-88
2021/05/26 05:52:44;;;;;;;6.57;3.30;;;6.30;99.90;;;;;;6188252;23;20008;-88
2021/05/26 05:55:11;;;;;;;5.20;3.08;;;6.30;99.90;;;;;;6189139;23;20012;-89
2021/05/26 05:57:40;;;;;;;8.50;3.03;;;6.30;99.90;;;;;;6189816;23;20040;-91
2021/05/26 06:00:08;;;;;;;8.25;3.50;;;6.40;99.90;;;;;;6215690;23;20009;-89
2021/05/26 06:02:34;;;;;;;9.65;2.80;;;6.50;99.90;;;;;;6189388;23;20051;-90
2021/05/26 06:04:59;;;;;;;6.82;2.70;;;6.50;99.90;;;;;;6189353;23;20024;-88
2021/05/26 06:07:25;;;;;;;6.78;3.20;;;6.60;99.90;;;;;;6215841;23;19996;-87
2021/05/26 06:09:53;;;;;;;3.65;2.83;;;6.70;99.90;;;;;;6189022;23;20013;-89
2021/05/26 06:12:20;;;;;;;6.63;2.85;;;6.80;99.90;;;;;;6188750;23;20087;-91
2021/05/26 06:14:46;;;;;;;6.80;2.90;;;6.90;99.90;;;;;;6189253;23;20019;-90
2021/05/26 06:17:13;;;;;;;5.00;3.08;;;7.00;99.90;;;;;;6190009;23;20005;-90
2021/05/26 06:19:39;;;;;;;4.20;2.60;;;7.10;99.90;;;;;;6189981;23;20000;-90
2021/05/26 06:22:05;;;;;;;5.47;2.42;;;7.20;99.90;;;;;;6189767;23;20014;-90
2021/05/26 06:24:32;;;;;;;9.30;2.45;;;7.20;99.90;;;;;;6190086;23;20102;-89
2021/05/26 06:26:58;;;;;;;7.50;2.50;;;7.40;99.90;;;;;;6189444;23;20000;-91
2021/05/26 06:29:24;;;;;;;6.63;2.53;;;7.50;99.90;;;;;;6189800;23;20009;-88
2021/05/26 06:31:50;;;;;;;2.30;2.10;;;7.60;99.90;;;;;;6188859;23;20011;-88
2021/05/26 06:34:15;;;;;;;7.15;2.72;;;7.60;99.90;;;;;;6188619;23;20080;-87
2021/05/26 06:36:41;;;;;;;3.30;2.10;;;7.70;99.90;;;;;;6188706;23;20031;-88
2021/05/26 06:39:07;;;;;;;5.97;1.92;;;7.80;99.90;;;;;;6188271;23;20079;-89
2021/05/26 06:41:33;;;;;;;5.25;2.30;;;7.90;99.90;;;;;;6187943;23;20419;-89
2021/05/26 06:43:59;;;;;;;4.63;2.25;;;8.00;99.90;;;;;;6214906;23;20021;-88
2021/05/26 06:46:25;;;;;;;3.80;2.13;;;8.00;99.90;;;;;;6185475;23;20071;-88
2021/05/26 06:48:50;;;;;;;5.18;2.63;;;8.10;99.90;;;;;;6188750;23;20003;-90
2021/05/26 06:51:16;;;;;;;4.20;2.28;;;8.10;99.90;;;;;;6188187;23;20005;-90
2021/05/26 06:53:42;;;;;;;4.70;2.20;;;8.10;99.90;;;;;;6189129;23;20001;-88
2021/05/26 06:56:07;;;;;;;4.35;2.33;;;8.10;99.90;;;;;;6189037;23;20139;-87
2021/05/26 06:58:33;;;;;;;4.03;2.30;;;8.10;99.90;;;;;;6189320;23;20123;-88
2021/05/26 07:01:00;;;;;;;8.80;2.72;;;8.10;99.90;;;;;;6215634;23;20001;-90
2021/05/26 07:03:25;;;;;;;4.55;2.22;;;8.10;99.90;;;;;;6188268;23;20088;-91
2021/05/26 07:05:51;;;;;;;6.78;2.33;;;8.10;99.90;;;;;;6189140;23;20048;-88
2021/05/26 07:08:17;;;;;;;5.90;2.70;;;8.20;99.90;;;;;;6191224;23;20084;-90
2021/05/26 07:10:42;;;;;;;6.80;3.42;;;8.20;99.90;;;;;;6190475;23;20051;-88
2021/05/26 07:13:08;;;;;;;5.20;2.55;;;8.30;99.90;;;;;;6190526;23;20070;-88
2021/05/26 07:15:34;;;;;;;5.22;2.42;;;8.30;99.90;;;;;;6190201;23;20377;-88
2021/05/26 07:18:08;;;;;;;6.00;2.67;;;8.50;99.90;;;;;;6191288;23;20090;-88
2021/05/26 07:20:34;;;;;;;8.63;3.08;;;8.50;99.90;;;;;;6192210;23;20008;-88
2021/05/26 07:23:00;;;;;;;5.00;3.05;;;8.60;99.90;;;;;;6192686;23;20001;-89
2021/05/26 07:25:27;;;;;;;5.72;3.08;;;8.60;99.90;;;;;;6167450;23;20472;-89
2021/05/26 07:27:55;;;;;;;8.13;4.45;;;8.60;99.90;;;;;;6192750;23;20080;-90
2021/05/26 07:30:25;;;;;;;7.47;3.53;;;8.70;99.90;;;;;;6219843;23;20001;-89
2021/05/26 07:32:56;;;;;;;8.82;3.60;;;8.80;99.90;;;;;;6192746;23;20503;-88
2021/05/26 07:35:22;;;;;;;4.95;3.13;;;8.80;99.90;;;;;;6192547;23;20100;-89
2021/05/26 07:37:48;;;;;;;9.05;3.63;;;8.90;99.90;;;;;;6192083;23;20031;-90
2021/05/26 07:40:16;;;;;;;5.55;3.05;;;9.00;99.90;;;;;;6192171;23;20000;-89
2021/05/26 07:42:47;;;;;;;7.53;3.72;;;9.00;99.90;;;;;;6167546;23;20024;-89
2021/05/26 07:45:12;;;;;;;;;;;9.00;99.90;;;;;;6192657;23;20013;-89
2021/05/26 07:47:45;;;;;;;8.15;4.10;;;9.00;99.90;;;;;;6217058;23;20302;-91
2021/05/26 07:50:50;;;;;;;;;;;;;;;;;;;;;
2021/05/26 07:53:16;;;;;;;8.00;3.47;;;9.10;99.90;;;;;;6211188;23;20052;-90
2021/05/26 07:55:45;;;;;;;5.80;2.85;;;9.20;99.90;;;;;;6190901;23;20035;-90
2021/05/26 07:58:11;;;;;;;7.18;2.80;;;9.30;99.90;;;;;;6191455;23;20016;-89
2021/05/26 08:00:37;;;;;;;6.50;3.50;;;9.40;99.90;;;;;;6191002;23;20371;-90
2021/05/26 08:03:03;;;;;;;8.32;3.20;;;9.40;99.90;;;;;;6191670;23;20043;-88
2021/05/26 08:05:29;;;;;;;6.28;3.20;;;9.40;99.90;;;;;;6191825;23;20008;-89
2021/05/26 08:07:55;;;;;;;7.63;2.80;;;9.40;99.90;;;;;;6167167;23;20015;-90
2021/05/26 08:10:21;;;;;;;4.70;3.08;;;9.50;99.90;;;;;;6191424;23;20364;-89
2021/05/26 08:12:49;;;;;;;6.93;3.33;;;9.50;99.90;;;;;;6190551;23;20520;-90
2021/05/26 08:15:15;;;;;;;8.10;3.83;;;9.50;99.90;;;;;;6191549;23;20493;-89
2021/05/26 08:17:41;;;;;;;11.93;4.03;;;9.50;99.90;;;;;;6190445;23;20032;-90
2021/05/26 08:20:07;;;;;;;7.95;3.90;;;9.50;99.90;;;;;;6191186;23;20009;-90
2021/05/26 08:22:34;;;;;;;5.40;3.60;;;9.50;99.90;;;;;;6190614;23;20005;-89
2021/05/26 08:25:00;;;;;;;7.65;3.85;;;9.60;99.90;;;;;;6191423;23;20094;-89
2021/05/26 08:27:26;;;;;;;10.38;4.22;;;9.60;99.90;;;;;;6191091;23;20336;-89
2021/05/26 08:30:00;;;;;;;8.88;3.65;;;9.60;99.90;;;;;;6191571;23;20028;-89
2021/05/26 08:32:27;;;;;;;9.63;3.80;;;9.60;99.90;;;;;;6191385;23;20012;-90
2021/05/26 08:34:55;;;;;;;8.05;4.07;;;9.70;99.90;;;;;;6190062;23;20008;-90
2021/05/26 08:37:21;;;;;;;8.88;3.72;;;9.70;99.90;;;;;;6189332;23;20172;-92
2021/05/26 08:39:46;;;;;;;5.63;4.22;;;9.70;99.90;;;;;;6189107;23;20012;-91
2021/05/26 08:42:14;;;;;;;7.10;4.03;;;9.70;99.90;;;;;;6189954;23;20012;-90
2021/05/26 08:44:40;;;;;;;7.50;3.42;;;9.70;99.90;;;;;;6189623;23;20061;-90
2021/05/26 08:47:06;;;;;;;7.13;3.67;;;9.70;99.90;;;;;;6190273;23;20039;-91
2021/05/26 08:49:32;;;;;;;8.25;3.67;;;9.70;99.90;;;;;;6190402;23;20058;-90
2021/05/26 08:52:02;;;;;;;5.80;3.25;;;9.60;99.90;;;;;;6190010;23;20012;-90
2021/05/26 08:54:28;;;;;;;7.93;4.33;;;9.60;99.90;;;;;;6190087;23;20008;-88
2021/05/26 08:56:57;;;;;;;6.72;3.50;;;9.60;99.90;;;;;;6217015;23;20071;-90
2021/05/26 08:59:23;;;;;;;6.95;3.40;;;9.60;99.90;;;;;;6190105;23;20012;-89
2021/05/26 09:01:53;;;;;;;8.35;4.80;;;9.60;99.90;;;;;;6217059;23;20075;-89
2021/05/26 09:04:33;;;;;;;15.25;5.53;;;9.60;99.90;;;;;;6190673;23;20015;-89
2021/05/26 09:07:07;;;;;;;8.75;4.47;;;9.60;99.90;;;;;;6190659;23;20020;-88
2021/05/26 09:09:52;;;;;;;8.20;3.90;;;9.50;99.90;;;;;;6191101;23;20001;-87
2021/05/26 09:12:42;;;;;;;6.50;3.53;;;9.60;99.90;;;;;;6191114;23;20016;-90
2021/05/26 09:15:20;;;;;;;6.85;3.35;;;9.60;99.90;;;;;;6186136;23;20011;-91
2021/05/26 09:17:49;;;;;;;4.40;3.28;;;9.70;99.90;;;;;;6190683;23;20001;-90
2021/05/26 09:20:30;;;;;;;4.35;2.60;;;9.70;99.90;;;;;;6190868;23;20375;-90
2021/05/26 09:23:12;;;;;;;3.60;2.85;;;9.80;99.90;;;;;;6190117;23;20332;-90
2021/05/26 09:25:49;;;;;;;3.85;2.80;;;9.80;99.90;;;;;;6190084;23;20344;-90
2021/05/26 09:28:28;;;;;;;9.25;2.90;;;9.90;99.90;;;;;;6190040;23;20088;-91
2021/05/26 09:31:07;;;;;;;7.43;2.65;;;9.90;99.90;;;;;;6190153;23;20424;-90
2021/05/26 09:33:44;;;;;;;5.18;2.75;;;10.00;99.90;;;;;;6190064;23;20428;-90
2021/05/26 09:36:19;;;;;;;7.60;3.00;;;10.00;99.90;;;;;;6190235;23;20009;-90
2021/05/26 09:38:52;;;;;;;5.03;2.00;;;10.10;99.90;;;;;;6190126;23;20012;-89
2021/05/26 09:41:26;;;;;;;2.67;2.05;;;10.10;99.90;;;;;;6190428;23;19997;-91
2021/05/26 09:43:57;;;;;;;2.35;1.92;;;10.20;99.90;;;;;;6191058;23;20043;-91
2021/05/26 09:46:26;;;;;;;;;;;10.20;99.90;;;;;;6190304;23;20020;-91
2021/05/26 09:49:14;;;;;;;2.50;1.90;;;10.20;99.90;;;;;;6189977;23;19926;-90
2021/05/26 09:51:45;;;;;;;4.97;1.85;;;10.30;99.90;;;;;;6188587;23;20001;-90
2021/05/26 09:54:20;;;;;;;3.78;2.13;;;10.30;99.90;;;;;;6189037;23;20016;-91
2021/05/26 09:57:09;;;;;;;4.10;2.30;;;10.40;99.90;;;;;;6188549;23;20000;-89
2021/05/26 09:59:36;;;;;;;4.35;2.28;;;10.50;99.90;;;;;;6213194;23;20011;-91
2021/05/26 10:02:07;;;;;;;5.57;2.00;;;10.70;99.90;;;;;;6189088;23;20024;-90
2021/05/26 10:04:33;;;;;;;5.13;2.40;;;10.70;99.90;;;;;;6189315;23;20001;-90
2021/05/26 10:07:08;;;;;;;2.90;2.45;;;10.80;99.90;;;;;;6187737;23;20009;-89
2021/05/26 10:09:34;;;;;;;3.17;2.30;;;10.90;99.90;;;;;;6187923;23;20032;-90
2021/05/26 10:12:01;;;;;;;2.97;1.92;;;10.90;99.90;;;;;;6188567;23;20008;-90
2021/05/26 10:14:27;;;;;;;6.10;1.85;;;11.00;99.90;;;;;;6189048;23;20039;-90
2021/05/26 10:16:55;;;;;;;2.30;1.77;;;11.10;99.90;;;;;;6188467;23;20004;-92
2021/05/26 10:19:22;;;;;;;3.55;1.83;;;11.10;99.90;;;;;;6188924;23;20040;-92
2021/05/26 10:21:49;;;;;;;2.10;1.60;;;11.20;99.90;;;;;;6188547;23;20367;-91
2021/05/26 10:24:19;;;;;;;2.17;1.70;;;11.20;99.90;;;;;;6188496;23;20011;-92
2021/05/26 10:26:54;;;;;;;1.85;1.70;;;11.30;99.90;;;;;;6188277;23;20020;-89
2021/05/26 10:29:33;;;;;;;2.70;1.50;;;11.30;99.90;;;;;;6188964;23;20009;-90
2021/05/26 10:32:15;;;;;;;3.28;1.55;;;11.30;99.90;;;;;;6188731;23;20005;-89
2021/05/26 10:34:46;;;;;;;2.80;1.60;;;11.40;99.90;;;;;;6188857;23;20015;-91
2021/05/26 10:37:23;;;;;;;1.60;1.50;;;11.50;99.90;;;;;;6188426;23;20085;-90
2021/05/26 10:39:52;;;;;;;2.75;1.80;;;11.50;99.90;;;;;;6188781;23;20454;-91
2021/05/26 10:42:31;;;;;;;1.67;1.58;;;11.60;99.90;;;;;;6189162;23;20032;-90
2021/05/26 10:45:09;;;;;;;5.05;1.73;;;11.70;99.90;;;;;;6189262;23;20017;-93
2021/05/26 10:47:38;;;;;;;3.08;1.77;;;11.70;99.90;;;;;;6189366;23;20011;-92
2021/05/26 10:50:23;;;;;;;1.98;1.73;;;11.80;99.90;;;;;;6189283;23;20001;-92
2021/05/26 10:52:54;;;;;;;2.60;1.65;;;11.90;99.90;;;;;;6215715;23;20001;-91
2021/05/26 10:55:41;;;;;;;6.32;1.70;;;12.00;99.90;;;;;;6216355;23;20092;-92
2021/05/26 10:58:11;;;;;;;3.30;1.60;;;12.10;99.90;;;;;;6189125;23;20387;-91
2021/05/26 11:03:53;;;;;;;1.83;1.45;;;12.30;99.90;;;;;;6245012;22;20391;-89
2021/05/26 11:06:18;;;;;;;1.95;1.55;;;12.40;99.90;;;;;;6244185;23;20018;-90
2021/05/26 11:08:46;;;;;;;4.82;1.80;;;12.40;99.90;;;;;;6218813;23;20317;-90
2021/05/26 11:11:21;;;;;;;2.90;1.90;;;12.40;99.90;;;;;;6219126;23;20339;-90
2021/05/26 11:14:06;;;;;;;4.78;1.88;;;12.30;99.90;;;;;;6219317;23;20057;-91
2021/05/26 11:17:00;;;;;;;2.08;1.70;;;12.20;99.90;;;;;;6245988;23;20000;-93
2021/05/26 11:19:29;;;;;;;2.22;1.70;;;12.20;99.90;;;;;;6219755;23;20000;-90
2021/05/26 11:21:54;;;;;;;2.15;1.45;;;12.20;99.90;;;;;;6246284;23;20004;-92
2021/05/26 11:24:21;;;;;;;4.03;2.08;;;12.20;99.90;;;;;;6245738;23;20775;-89
2021/05/26 11:26:47;;;;;;;2.55;1.77;;;12.20;99.90;;;;;;6219827;23;20016;-92
2021/05/26 11:29:24;;;;;;;3.25;2.00;;;12.20;99.90;;;;;;6219503;23;20091;-91
2021/05/26 11:32:04;;;;;;;2.58;1.98;;;12.20;99.90;;;;;;6219871;23;20022;-92
2021/05/26 11:34:30;;;;;;;5.05;2.22;;;12.10;99.90;;;;;;6219720;23;20495;-91
2021/05/26 11:36:56;;;;;;;1.92;1.83;;;12.00;99.90;;;;;;6245160;23;20042;-91
2021/05/26 11:39:28;;;;;;;2.58;2.10;;;11.90;99.90;;;;;;6245167;23;20028;-92
2021/05/26 11:42:07;;;;;;;4.57;1.92;;;11.90;99.90;;;;;;6220179;23;20707;-91
2021/05/26 11:44:43;;;;;;;3.55;1.90;;;11.80;99.90;;;;;;6219510;23;20335;-91
2021/05/26 11:47:10;;;;;;;3.13;1.80;;;11.80;99.90;;;;;;6246041;23;20030;-91
2021/05/26 11:49:39;;;;;;;3.80;2.03;;;11.70;99.90;;;;;;6218252;23;20071;-92
2021/05/26 11:52:07;;;;;;;2.40;2.20;;;11.70;99.90;;;;;;6215145;23;20015;-91
2021/05/26 11:54:33;;;;;;;4.22;2.22;;;11.70;99.90;;;;;;6191645;23;20005;-91
2021/05/26 11:57:07;;;;;;;3.85;2.20;;;11.70;99.90;;;;;;6191823;23;20008;-92
2021/05/26 11:59:33;;;;;;;2.00;1.70;;;11.70;99.90;;;;;;6192282;23;20012;-92
2021/05/26 12:01:59;;;;;;;4.15;1.83;;;11.60;99.90;;;;;;6192192;23;20021;-91
2021/05/26 12:04:25;;;;;;;4.57;2.42;;;11.60;99.90;;;;;;6197616;23;20070;-93
2021/05/26 12:06:51;;;;;;;6.47;2.75;;;11.60;99.90;;;;;;6197314;23;20020;-92
2021/05/26 12:09:25;;;;;;;4.50;1.85;;;11.60;99.90;;;;;;6195577;23;20001;-92
2021/05/26 12:11:50;;;;;;;3.38;2.10;;;11.50;99.90;;;;;;6195842;23;20004;-91
2021/05/26 12:14:28;;;;;;;4.25;2.45;;;11.50;99.90;;;;;;6192351;23;20080;-92
2021/05/26 12:16:54;;;;;;;3.45;2.30;;;11.50;99.90;;;;;;6191533;23;20012;-90
2021/05/26 12:19:30;;;;;;;3.63;2.90;;;11.40;99.90;;;;;;6191470;23;20011;-92
2021/05/26 12:22:17;;;;;;;8.32;2.60;;;11.40;99.90;;;;;;6216837;23;20012;-92
2021/05/26 12:25:00;;;;;;;5.63;2.30;;;11.50;99.90;;;;;;6191355;23;20000;-92
2021/05/26 12:27:46;;;;;;;3.00;1.88;;;11.50;99.90;;;;;;6191582;23;20447;-93
2021/05/26 12:30:28;;;;;;;2.65;2.10;;;11.50;99.90;;;;;;6214729;23;20051;-91
2021/05/26 12:32:56;;;;;;;2.65;2.10;;;11.60;99.90;;;;;;6189516;23;20009;-92
2021/05/26 12:35:28;;;;;;;2.35;2.15;;;11.60;99.90;;;;;;6189223;23;20009;-91
2021/05/26 12:37:55;;;;;;;3.15;1.90;;;11.70;99.90;;;;;;6190746;23;20059;-91
2021/05/26 12:40:27;;;;;;;2.70;2.08;;;11.70;99.90;;;;;;6189349;23;20036;-92
2021/05/26 12:42:54;;;;;;;5.53;1.90;;;11.70;99.90;;;;;;6187155;23;20095;-92
2021/05/26 12:45:25;;;;;;;2.72;2.03;;;11.80;99.90;;;;;;6188541;23;20020;-92
2021/05/26 12:47:51;;;;;;;3.97;2.42;;;11.80;99.90;;;;;;6188940;23;20539;-92
2021/05/26 12:50:27;;;;;;;4.50;2.05;;;11.80;99.90;;;;;;6188416;23;20009;-92
2021/05/26 12:53:04;;;;;;;5.80;2.50;;;11.70;99.90;;;;;;6189483;23;20050;-92
2021/05/26 12:55:39;;;;;;;3.75;2.55;;;11.70;99.90;;;;;;6190570;23;20306;-92
2021/05/26 12:58:14;;;;;;;3.55;2.38;;;11.70;99.90;;;;;;6189626;23;20015;-94
2021/05/26 13:00:42;;;;;;;3.35;2.30;;;11.70;99.90;;;;;;6189865;23;20009;-92
2021/05/26 13:03:16;;;;;;;3.58;2.10;;;11.70;99.90;;;;;;6189338;23;20088;-91
2021/05/26 13:05:50;;;;;;;7.03;2.40;;;11.70;99.90;;;;;;6189493;23;20045;-92